createdAt,value
2018-10-16T00:00:18.849Z,10.50
2018-10-16T00:02:43.259Z,10.83
2018-10-16T00:05:07.216Z,10.80
2018-10-16T00:07:31.139Z,10.57
2018-10-16T00:09:55.023Z,10.37
2018-10-16T00:12:18.953Z,10.00
2018-10-16T00:14:42.837Z,10.20
2018-10-16T00:17:06.743Z,9.77
2018-10-16T00:19:30.768Z,10.57
2018-10-16T00:21:54.991Z,9.80
2018-10-16T00:24:18.885Z,9.57
2018-10-16T00:26:42.834Z,10.47
2018-10-16T00:29:06.701Z,10.63
2018-10-16T00:31:30.567Z,10.87
2018-10-16T00:33:54.463Z,10.23
2018-10-16T00:36:18.351Z,10.87
2018-10-16T00:38:42.480Z,10.13
2018-10-16T00:41:06.855Z,11.13
2018-10-16T00:43:30.748Z,10.70
2018-10-16T00:45:54.671Z,11.13
2018-10-16T00:48:18.555Z,11.30
2018-10-16T00:50:42.742Z,12.30
2018-10-16T00:53:06.622Z,11.77
2018-10-16T00:55:30.477Z,11.27
2018-10-16T00:57:54.368Z,11.47
2018-10-16T01:00:18.282Z,11.23
2018-10-16T01:02:43.280Z,12.20
2018-10-16T01:05:07.663Z,11.50
2018-10-16T01:07:31.536Z,11.07
2018-10-16T01:09:55.459Z,11.53
2018-10-16T01:12:19.336Z,11.43
2018-10-16T01:14:43.236Z,10.50
2018-10-16T01:17:07.121Z,11.37
2018-10-16T01:19:31.005Z,11.53
2018-10-16T01:21:54.887Z,11.57
2018-10-16T01:24:18.760Z,11.47
2018-10-16T01:26:42.921Z,11.30
2018-10-16T01:29:06.809Z,11.30
2018-10-16T01:31:30.691Z,10.63
2018-10-16T01:33:54.595Z,10.80
2018-10-16T01:36:18.476Z,10.97
2018-10-16T01:38:42.423Z,10.20
2018-10-16T01:41:06.587Z,10.80
2018-10-16T01:43:30.790Z,10.37
2018-10-16T01:45:54.666Z,10.93
2018-10-16T01:48:18.529Z,10.63
2018-10-16T01:50:42.689Z,10.97
2018-10-16T01:53:06.576Z,11.53
2018-10-16T01:55:30.444Z,11.07
2018-10-16T01:57:54.356Z,11.20
2018-10-16T02:00:18.241Z,11.27
2018-10-16T02:02:42.240Z,11.30
2018-10-16T02:05:06.676Z,11.07
2018-10-16T02:07:30.569Z,11.80
2018-10-16T02:09:54.496Z,11.47
2018-10-16T02:12:18.369Z,11.23
2018-10-16T02:14:42.270Z,10.87
2018-10-16T02:17:06.618Z,11.10
2018-10-16T02:19:30.541Z,12.07
2018-10-16T02:21:54.436Z,11.63
2018-10-16T02:24:18.350Z,11.77
2018-10-16T02:26:42.330Z,11.23
2018-10-16T02:29:06.674Z,12.47
2018-10-16T02:31:30.558Z,11.03
2018-10-16T02:33:54.448Z,11.20
2018-10-16T02:36:18.340Z,12.20
2018-10-16T02:38:44.563Z,11.80
2018-10-16T02:41:08.441Z,11.30
2018-10-16T02:43:32.325Z,12.07
2018-10-16T02:45:56.211Z,11.63
2018-10-16T02:48:20.070Z,11.93
2018-10-16T02:50:43.952Z,11.33
2018-10-16T02:53:07.837Z,11.57
2018-10-16T02:55:31.683Z,12.47
2018-10-16T02:57:55.579Z,12.33
2018-10-16T03:00:19.445Z,12.63
2018-10-16T03:02:43.441Z,12.43
2018-10-16T03:05:07.464Z,12.53
2018-10-16T03:07:31.351Z,12.27
2018-10-16T03:09:56.448Z,12.10
2018-10-16T03:12:20.298Z,11.87
2018-10-16T03:14:44.152Z,11.93
2018-10-16T03:17:08.103Z,11.97
2018-10-16T03:19:31.956Z,12.70
2018-10-16T03:21:55.830Z,12.50
2018-10-16T03:24:19.673Z,12.87
2018-10-16T03:26:43.526Z,12.97
2018-10-16T03:29:07.936Z,13.27
2018-10-16T03:31:31.818Z,12.67
2018-10-16T03:33:55.685Z,12.90
2018-10-16T03:36:19.573Z,13.20
2018-10-16T03:38:43.428Z,12.57
2018-10-16T03:41:07.391Z,12.73
2018-10-16T03:43:31.264Z,12.67
2018-10-16T03:45:55.174Z,12.77
2018-10-16T03:48:19.060Z,12.80
2018-10-16T03:50:42.921Z,12.90
2018-10-16T03:53:06.981Z,13.20
2018-10-16T03:55:37.390Z,13.53
2018-10-16T03:58:01.579Z,13.53
2018-10-16T04:00:25.454Z,13.30
2018-10-16T04:02:49.374Z,12.70
2018-10-16T04:05:13.281Z,13.23
2018-10-16T04:07:37.334Z,12.53
2018-10-16T04:10:01.400Z,13.40
2018-10-16T04:12:25.277Z,12.57
2018-10-16T04:14:49.154Z,12.90
2018-10-16T04:17:13.045Z,12.83
2018-10-16T04:19:37.013Z,13.17
2018-10-16T04:22:00.947Z,13.03
2018-10-16T04:24:24.900Z,13.33
2018-10-16T04:26:48.772Z,13.40
2018-10-16T04:29:13.010Z,13.13
2018-10-16T04:31:36.865Z,13.80
2018-10-16T04:34:00.848Z,12.37
2018-10-16T04:36:24.690Z,13.53
2018-10-16T04:38:48.622Z,12.83
2018-10-16T04:41:12.524Z,13.10
2018-10-16T04:43:36.470Z,13.10
2018-10-16T04:46:00.367Z,13.33
2018-10-16T04:48:24.425Z,12.37
2018-10-16T04:50:48.289Z,12.97
2018-10-16T04:53:12.207Z,13.00
2018-10-16T04:55:36.074Z,12.80
2018-10-16T04:57:59.951Z,12.83
2018-10-16T05:00:23.878Z,12.90
2018-10-16T05:02:47.813Z,12.60
2018-10-16T05:05:18.628Z,12.80
2018-10-16T05:07:42.584Z,13.17
2018-10-16T05:10:06.909Z,13.90
2018-10-16T05:12:30.763Z,13.57
2018-10-16T05:14:54.682Z,13.00
2018-10-16T05:17:18.572Z,14.10
2018-10-16T05:19:42.449Z,13.40
2018-10-16T05:22:06.372Z,12.57
2018-10-16T05:24:30.280Z,13.07
2018-10-16T05:29:24.138Z,12.80
2018-10-16T05:31:48.033Z,13.00
2018-10-16T05:34:11.954Z,13.70
2018-10-16T05:36:35.851Z,12.43
2018-10-16T05:38:59.796Z,13.00
2018-10-16T05:41:23.720Z,13.30
2018-10-16T05:43:47.597Z,12.73
2018-10-16T05:46:11.549Z,12.87
2018-10-16T05:48:35.420Z,12.00
2018-10-16T05:51:05.586Z,12.23
2018-10-16T05:53:29.459Z,12.27
2018-10-16T05:56:04.509Z,13.03
2018-10-16T05:58:28.421Z,12.23
2018-10-16T06:00:52.292Z,12.43
2018-10-16T06:03:16.180Z,12.57
2018-10-16T06:05:40.161Z,12.40
2018-10-16T06:08:04.014Z,13.20
2018-10-16T06:10:28.012Z,13.23
2018-10-16T06:12:51.925Z,13.20
2018-10-16T06:15:15.812Z,12.47
2018-10-16T06:17:39.689Z,13.23
2018-10-16T06:20:03.584Z,12.90
2018-10-16T06:22:27.516Z,13.33
2018-10-16T06:24:51.386Z,12.17
2018-10-16T06:27:15.336Z,13.20
2018-10-16T06:29:39.210Z,12.80
2018-10-16T06:32:03.091Z,13.37
2018-10-16T06:34:27.003Z,13.93
2018-10-16T06:36:50.853Z,13.93
2018-10-16T06:39:14.717Z,14.57
2018-10-16T06:41:38.725Z,13.93
2018-10-16T06:44:02.573Z,13.83
2018-10-16T06:46:26.519Z,14.17
2018-10-16T06:48:50.628Z,14.03
2018-10-16T06:51:14.244Z,14.13
2018-10-16T06:53:38.150Z,13.77
2018-10-16T06:56:02.037Z,13.60
2018-10-16T06:58:25.930Z,14.17
2018-10-16T07:00:49.889Z,13.90
2018-10-16T07:03:13.777Z,13.53
2018-10-16T07:05:37.668Z,13.30
2018-10-16T07:08:01.563Z,13.70
2018-10-16T07:10:25.529Z,13.77
2018-10-16T07:12:49.426Z,13.80
2018-10-16T07:15:13.342Z,13.00
2018-10-16T07:17:37.255Z,13.67
2018-10-16T07:20:01.125Z,14.27
2018-10-16T07:22:25.071Z,14.03
2018-10-16T07:24:48.911Z,14.03
2018-10-16T07:27:12.795Z,14.00
2018-10-16T07:29:36.964Z,14.00
2018-10-16T07:32:00.823Z,13.40
2018-10-16T07:34:24.757Z,13.73
2018-10-16T07:36:48.619Z,13.70
2018-10-16T07:39:13.571Z,14.37
2018-10-16T07:41:37.657Z,13.83
2018-10-16T07:44:01.564Z,13.33
2018-10-16T07:46:25.459Z,13.63
2018-10-16T07:48:49.387Z,13.47
2018-10-16T07:51:13.240Z,13.50
2018-10-16T07:53:37.143Z,14.70
2018-10-16T07:56:01.028Z,15.43
2018-10-16T07:58:24.951Z,15.20
2018-10-16T08:00:48.851Z,15.63
2018-10-16T08:03:12.740Z,14.37
2018-10-16T08:05:36.634Z,14.80
2018-10-16T08:08:00.528Z,14.03
2018-10-16T08:10:24.471Z,13.83
2018-10-16T08:12:48.373Z,13.87
2018-10-16T08:15:12.476Z,14.47
2018-10-16T08:17:36.436Z,15.40
2018-10-16T08:20:00.327Z,15.10
2018-10-16T08:22:24.159Z,15.47
2018-10-16T08:24:48.102Z,15.13
2018-10-16T08:27:11.994Z,14.53
2018-10-16T08:29:35.850Z,14.87
2018-10-16T08:31:59.768Z,15.60
2018-10-16T08:34:23.692Z,15.03
2018-10-16T08:36:47.685Z,15.00
2018-10-16T08:39:17.363Z,14.87
2018-10-16T08:41:51.453Z,14.47
2018-10-16T08:44:44.472Z,15.70
2018-10-16T08:47:19.784Z,16.00
2018-10-16T08:49:54.898Z,15.30
2018-10-16T08:52:18.775Z,15.13
2018-10-16T08:54:42.664Z,15.10
2018-10-16T08:57:06.558Z,14.33
2018-10-16T08:59:30.481Z,14.80
2018-10-16T09:01:54.345Z,15.23
2018-10-16T09:04:18.275Z,15.13
2018-10-16T09:06:42.183Z,17.70
2018-10-16T09:09:09.181Z,14.27
2018-10-16T09:11:33.041Z,15.43
2018-10-16T09:13:57.167Z,15.57
2018-10-16T09:16:21.472Z,14.77
2018-10-16T09:18:45.325Z,15.03
2018-10-16T09:21:09.247Z,15.13
2018-10-16T09:23:33.119Z,14.47
2018-10-16T09:25:57.040Z,14.97
2018-10-16T09:28:20.919Z,13.57
2018-10-16T09:30:44.844Z,13.40
2018-10-16T09:33:08.789Z,13.53
2018-10-16T09:35:32.649Z,13.77
2018-10-16T09:37:56.637Z,14.10
2018-10-16T09:40:21.074Z,15.33
2018-10-16T09:42:44.955Z,13.10
2018-10-16T09:45:09.949Z,12.87
2018-10-16T09:47:33.824Z,14.27
2018-10-16T09:49:57.739Z,12.40
2018-10-16T09:52:21.605Z,13.07
2018-10-16T09:54:45.482Z,12.57
2018-10-16T09:57:09.395Z,12.97
2018-10-16T09:59:33.301Z,12.37
2018-10-16T10:01:57.266Z,13.20
2018-10-16T10:04:21.192Z,12.67
2018-10-16T10:06:45.108Z,11.57
2018-10-16T10:09:10.853Z,11.40
2018-10-16T10:11:34.734Z,11.93
2018-10-16T10:13:58.650Z,11.80
2018-10-16T10:16:22.545Z,11.77
2018-10-16T10:18:46.572Z,9.87
2018-10-16T10:21:10.508Z,9.37
2018-10-16T10:23:34.388Z,9.00
2018-10-16T10:25:58.292Z,10.00
2018-10-16T10:28:22.224Z,9.07
2018-10-16T10:30:46.201Z,8.40
2018-10-16T10:33:10.058Z,9.10
2018-10-16T10:35:33.962Z,9.87
2018-10-16T10:38:31.482Z,8.60
2018-10-16T10:40:56.931Z,8.67
2018-10-16T10:43:34.353Z,8.27
2018-10-16T10:46:11.323Z,8.50
2018-10-16T10:48:31.278Z,8.17
2018-10-16T10:50:56.925Z,7.97
2018-10-16T10:53:22.181Z,7.80
2018-10-16T10:55:47.632Z,8.07
2018-10-16T10:58:13.069Z,8.37
2018-10-16T11:00:38.517Z,8.00
2018-10-16T11:03:15.904Z,7.80
2018-10-16T11:05:41.256Z,8.53
2018-10-16T11:08:20.368Z,7.20
2018-10-16T11:10:52.894Z,8.10
2018-10-16T11:13:09.869Z,7.67
2018-10-16T11:15:35.295Z,8.03
2018-10-16T11:18:00.718Z,6.80
2018-10-16T11:20:37.959Z,7.63
2018-10-16T11:23:17.816Z,7.47
2018-10-16T11:25:34.756Z,7.17
2018-10-16T11:28:00.196Z,7.47
2018-10-16T11:30:25.696Z,6.95
2018-10-16T11:32:51.169Z,7.17
2018-10-16T11:35:16.610Z,6.53
2018-10-16T11:37:42.141Z,6.05
2018-10-16T11:40:07.729Z,6.40
2018-10-16T11:42:33.178Z,6.97
2018-10-16T11:47:35.700Z,6.72
2018-10-16T11:50:01.219Z,6.37
2018-10-16T11:52:38.536Z,6.30
2018-10-16T11:55:03.987Z,6.33
2018-10-16T11:57:29.421Z,6.00
2018-10-16T11:59:54.863Z,6.00
2018-10-16T12:02:22.330Z,6.28
2018-10-16T12:04:47.547Z,5.95
2018-10-16T12:07:32.031Z,5.85
2018-10-16T12:09:57.498Z,6.10
2018-10-16T12:12:36.884Z,6.30
2018-10-16T12:14:54.671Z,5.47
2018-10-16T12:17:39.137Z,5.92
2018-10-16T12:20:23.271Z,4.97
2018-10-16T12:23:07.700Z,5.20
2018-10-16T12:25:44.964Z,5.37
2018-10-16T12:28:04.512Z,5.70
2018-10-16T12:30:29.966Z,5.15
2018-10-16T12:32:55.467Z,4.92
2018-10-16T12:35:20.888Z,5.25
2018-10-16T12:37:46.430Z,5.65
2018-10-16T12:40:11.988Z,6.30
2018-10-16T12:42:37.365Z,5.85
2018-10-16T12:45:03.038Z,5.55
2018-10-16T12:47:28.455Z,5.65
2018-10-16T12:49:53.910Z,4.90
2018-10-16T12:52:19.366Z,6.40
2018-10-16T12:54:44.794Z,5.95
2018-10-16T12:57:10.407Z,5.37
2018-10-16T12:59:35.825Z,6.28
2018-10-16T13:02:01.339Z,5.58
2018-10-16T13:04:26.777Z,5.10
2018-10-16T13:06:52.211Z,5.60
2018-10-16T13:09:17.731Z,5.37
2018-10-16T13:11:43.835Z,5.97
2018-10-16T13:14:09.330Z,5.42
2018-10-16T13:16:34.786Z,4.87
2018-10-16T13:19:00.241Z,6.75
2018-10-16T13:24:03.359Z,5.58
2018-10-16T13:26:28.845Z,5.70
2018-10-16T13:28:54.318Z,7.03
2018-10-16T13:31:19.748Z,6.25
2018-10-16T13:33:58.864Z,5.90
2018-10-16T13:36:16.741Z,5.42
2018-10-16T13:38:42.232Z,4.87
2018-10-16T13:41:19.208Z,5.28
2018-10-16T13:43:39.000Z,5.25
2018-10-16T13:46:04.493Z,5.60
2018-10-16T13:48:29.940Z,5.22
2018-10-16T13:50:55.421Z,4.08
2018-10-16T13:53:20.865Z,4.12
2018-10-16T13:55:46.308Z,4.70
2018-10-16T13:58:11.923Z,4.60
2018-10-16T14:00:37.194Z,4.78
2018-10-16T14:03:02.710Z,4.50
2018-10-16T14:05:28.177Z,5.28
2018-10-16T14:07:53.640Z,5.42
2018-10-16T14:10:19.421Z,4.90
2018-10-16T14:12:45.971Z,5.35
2018-10-16T14:15:12.316Z,4.50
2018-10-16T14:17:37.893Z,4.45
2018-10-16T14:20:03.346Z,4.42
2018-10-16T14:22:28.760Z,3.67
2018-10-16T14:24:54.215Z,3.90
2018-10-16T14:27:19.677Z,3.80
2018-10-16T14:29:45.148Z,4.12
2018-10-16T14:32:10.764Z,4.08
2018-10-16T14:34:36.266Z,3.87
2018-10-16T14:37:01.584Z,3.77
2018-10-16T14:39:27.018Z,3.90
2018-10-16T14:41:52.489Z,3.77
2018-10-16T14:44:17.939Z,3.25
2018-10-16T14:46:43.481Z,3.60
2018-10-16T14:49:08.961Z,3.70
2018-10-16T14:51:35.207Z,3.70
2018-10-16T14:56:38.099Z,4.53
2018-10-16T14:59:03.548Z,5.37
2018-10-16T15:01:29.013Z,4.55
2018-10-16T15:03:54.469Z,4.42
2018-10-16T15:06:20.014Z,4.60
2018-10-16T15:08:45.497Z,5.58
2018-10-16T15:11:22.731Z,4.75
2018-10-16T15:13:42.726Z,5.10
2018-10-16T15:16:08.335Z,5.47
2018-10-16T15:18:33.755Z,4.90
2018-10-16T15:20:59.221Z,5.35
2018-10-16T15:23:24.675Z,5.00
2018-10-16T15:25:50.082Z,4.58
2018-10-16T15:28:15.559Z,4.92
2018-10-16T15:30:41.016Z,4.97
2018-10-16T15:33:06.500Z,6.62
2018-10-16T15:35:31.955Z,6.10
2018-10-16T15:37:57.473Z,5.87
2018-10-16T15:40:22.885Z,8.13
2018-10-16T15:42:48.389Z,8.65
2018-10-16T15:45:14.207Z,8.60
2018-10-16T15:47:40.225Z,10.03
2018-10-16T15:50:06.100Z,9.77
2018-10-16T15:52:31.525Z,8.80
2018-10-16T15:55:11.377Z,8.03
2018-10-16T15:57:42.816Z,6.60
2018-10-16T16:00:01.016Z,5.95
2018-10-16T16:02:29.489Z,6.50
2018-10-16T16:04:54.966Z,6.00
2018-10-16T16:07:34.876Z,5.50
2018-10-16T16:09:51.609Z,6.03
2018-10-16T16:12:17.096Z,5.80
2018-10-16T16:14:42.546Z,5.17
2018-10-16T16:17:08.027Z,5.07
2018-10-16T16:19:33.528Z,5.60
2018-10-16T16:22:10.665Z,5.83
2018-10-16T16:24:30.012Z,7.73
2018-10-16T16:26:55.460Z,7.03
2018-10-16T16:29:20.971Z,6.87
2018-10-16T16:31:46.450Z,5.97
2018-10-16T16:34:12.044Z,6.63
2018-10-16T16:36:37.452Z,6.40
2018-10-16T16:39:02.950Z,6.13
2018-10-16T16:41:39.824Z,6.20
2018-10-16T16:46:37.070Z,5.93
2018-10-16T16:49:02.591Z,6.03
2018-10-16T16:51:28.031Z,5.47
2018-10-16T16:53:53.484Z,5.80
2018-10-16T16:56:30.110Z,5.97
2018-10-16T16:58:55.612Z,5.90
2018-10-16T17:01:21.021Z,5.60
2018-10-16T17:03:46.517Z,6.20
2018-10-16T17:06:12.010Z,6.40
2018-10-16T17:08:37.493Z,6.10
2018-10-16T17:11:03.022Z,6.30
2018-10-16T17:13:40.586Z,5.53
2018-10-16T17:16:06.085Z,6.33
2018-10-16T17:18:31.559Z,6.73
2018-10-16T17:20:57.057Z,6.03
2018-10-16T17:23:34.324Z,6.60
2018-10-16T17:25:53.850Z,6.80
2018-10-16T17:28:38.154Z,6.90
2018-10-16T17:31:03.653Z,7.17
2018-10-16T17:33:29.149Z,6.97
2018-10-16T17:35:54.686Z,6.63
2018-10-16T17:38:32.477Z,6.33
2018-10-16T17:40:58.041Z,6.77
2018-10-16T17:43:23.513Z,6.60
2018-10-16T17:45:48.984Z,6.80
2018-10-16T17:48:14.538Z,6.80
2018-10-16T17:50:39.968Z,7.17
2018-10-16T17:53:05.464Z,7.07
2018-10-16T17:58:08.557Z,7.20
2018-10-16T18:00:34.026Z,7.47
2018-10-16T18:02:59.527Z,7.50
2018-10-16T18:05:24.998Z,8.30
2018-10-16T18:07:50.474Z,8.03
2018-10-16T18:12:52.617Z,7.47
2018-10-16T18:15:18.102Z,7.87
2018-10-16T18:17:44.306Z,8.17
2018-10-16T18:20:11.004Z,7.70
2018-10-16T18:22:36.486Z,8.40
2018-10-16T18:30:13.864Z,8.20
2018-10-16T18:32:39.440Z,8.00
2018-10-16T18:35:05.003Z,8.03
2018-10-16T18:37:30.428Z,8.47
2018-10-16T18:39:56.004Z,8.63
2018-10-16T18:42:21.408Z,8.67
2018-10-16T18:44:46.875Z,7.70
2018-10-16T18:47:12.374Z,8.50
2018-10-16T18:49:37.870Z,8.23
2018-10-16T18:52:03.363Z,8.10
2018-10-16T18:54:28.983Z,8.50
2018-10-16T18:56:54.436Z,8.47
2018-10-16T18:59:19.855Z,8.53
2018-10-16T19:01:45.303Z,9.00
2018-10-16T19:04:11.308Z,8.17
2018-10-16T19:06:36.808Z,8.37
2018-10-16T19:11:39.691Z,8.00
2018-10-16T19:14:05.172Z,8.50
2018-10-16T19:16:30.643Z,8.27
2018-10-16T19:18:56.175Z,8.23
2018-10-16T19:21:21.640Z,8.27
2018-10-16T19:23:47.129Z,8.70
2018-10-16T19:26:12.577Z,8.57
2018-10-16T19:28:38.078Z,8.47
2018-10-16T19:31:03.502Z,8.87
2018-10-16T19:33:28.977Z,8.33
2018-10-16T19:35:54.489Z,8.47
2018-10-16T19:43:37.982Z,8.97
2018-10-16T19:46:03.465Z,8.53
2018-10-16T19:48:28.942Z,8.80
2018-10-16T19:53:30.847Z,8.67
2018-10-16T19:56:10.037Z,8.97
2018-10-16T20:01:03.868Z,8.57
2018-10-16T20:03:29.378Z,9.30
2018-10-16T20:05:54.866Z,9.23
2018-10-16T20:08:20.308Z,9.10
2018-10-16T20:10:45.802Z,9.60
2018-10-16T20:13:11.266Z,9.27
2018-10-16T20:15:36.714Z,9.13
2018-10-16T20:18:02.196Z,9.13
2018-10-16T20:20:27.634Z,9.60
2018-10-16T20:22:53.058Z,9.20
2018-10-16T20:25:18.655Z,9.70
2018-10-16T20:27:44.002Z,8.80
2018-10-16T20:30:10.646Z,9.40
2018-10-16T20:35:13.858Z,9.73
2018-10-16T20:37:55.835Z,9.70
2018-10-16T20:42:47.896Z,9.33
2018-10-16T20:45:13.374Z,10.80
2018-10-16T20:47:50.719Z,10.60
2018-10-16T20:50:16.162Z,10.53
2018-10-16T20:52:41.638Z,10.27
2018-10-16T20:55:18.988Z,11.33
2018-10-16T20:57:38.649Z,11.27
2018-10-16T21:00:04.409Z,11.27
2018-10-16T21:02:29.881Z,11.43
2018-10-16T21:04:55.518Z,11.90
2018-10-16T21:07:20.985Z,11.43
2018-10-16T21:09:58.107Z,12.33
2018-10-16T21:12:17.595Z,11.73
2018-10-16T21:14:43.057Z,11.57
2018-10-16T21:17:08.526Z,11.73
2018-10-16T21:19:34.039Z,11.97
2018-10-16T21:21:59.420Z,12.07
2018-10-16T21:24:36.693Z,12.27
2018-10-16T21:27:15.478Z,12.00
2018-10-16T21:29:40.997Z,12.13
2018-10-16T21:32:07.253Z,11.90
2018-10-16T21:34:32.710Z,11.37
2018-10-16T21:36:58.232Z,11.50
2018-10-16T21:39:23.618Z,11.67
2018-10-16T21:41:49.054Z,11.37
2018-10-16T21:46:52.464Z,11.93
2018-10-16T21:49:17.915Z,12.13
2018-10-16T21:51:43.622Z,12.40
2018-10-16T21:54:09.123Z,11.20
2018-10-16T21:56:34.555Z,13.10
2018-10-16T21:59:00.061Z,12.90
2018-10-16T22:01:44.172Z,12.57
2018-10-16T22:04:09.631Z,11.60
2018-10-16T22:06:35.163Z,11.70
2018-10-16T22:09:00.592Z,12.83
2018-10-16T22:11:26.254Z,12.33
2018-10-16T22:14:03.280Z,12.27
2018-10-16T22:16:23.389Z,12.20
2018-10-16T22:18:48.990Z,12.37
2018-10-16T22:21:14.457Z,12.17
2018-10-16T22:23:39.942Z,13.10
2018-10-16T22:26:05.379Z,12.27
2018-10-16T22:31:08.411Z,12.93
2018-10-16T22:33:33.787Z,13.10
2018-10-16T22:36:11.045Z,12.80
2018-10-16T22:38:41.936Z,14.23
2018-10-16T22:41:01.973Z,13.60
2018-10-16T22:43:27.455Z,13.77
2018-10-16T22:45:52.917Z,11.83
2018-10-16T22:48:18.367Z,11.63
2018-10-16T22:51:02.789Z,12.53
2018-10-16T22:53:42.858Z,11.50
2018-10-16T22:58:52.098Z,12.67
2018-10-16T23:01:09.027Z,12.63
2018-10-16T23:03:34.427Z,13.07
2018-10-16T23:05:59.863Z,13.30
2018-10-16T23:08:25.291Z,13.90
2018-10-16T23:10:50.808Z,12.97
2018-10-16T23:13:16.239Z,13.70
2018-10-16T23:18:19.227Z,13.63
2018-10-16T23:23:22.236Z,13.37
2018-10-16T23:28:24.068Z,14.00
2018-10-16T23:30:49.503Z,13.60
2018-10-16T23:33:14.912Z,13.50
2018-10-16T23:35:40.354Z,14.63
2018-10-16T23:38:06.082Z,13.80
2018-10-16T23:40:43.327Z,13.97
2018-10-16T23:43:03.479Z,13.87
2018-10-16T23:45:28.855Z,14.27
2018-10-16T23:47:54.328Z,13.53
2018-10-16T23:50:19.771Z,14.77
2018-10-16T23:55:22.074Z,14.27
2018-10-16T23:57:47.642Z,13.93
